Time;durP1;ratioP1;P1;durP2;ratioP2;P2;SDS_P1;SDS_P2;PMS_P1;PMS_P2;Temp;Humidity;BMP_temperature;BMP_pressure;BME280_temperature;BME280_humidity;BME280_pressure;Samples;Min_cycle;Max_cycle;Signal;HPM_P1;HPM_P2
2024/03/08 00:00:09;;;;;;;24.02;16.38;;;;;;;8.58;100.00;98307.44;4987163;28;20088;-68
2024/03/08 00:02:38;;;;;;;24.92;15.75;;;;;;;8.67;100.00;98305.78;4994704;28;20218;-67
2024/03/08 00:05:05;;;;;;;25.95;16.33;;;;;;;8.57;100.00;98284.25;4962507;28;21113;-67
2024/03/08 00:07:33;;;;;;;22.15;15.90;;;;;;;8.82;100.00;98317.31;4979394;28;20066;-67
2024/03/08 00:10:01;;;;;;;22.63;15.77;;;;;;;8.90;100.00;98313.22;4987082;28;20038;-68
2024/03/08 00:12:26;;;;;;;22.85;15.95;;;;;;;8.83;100.00;98312.94;4977007;28;20576;-67
2024/03/08 00:14:54;;;;;;;21.27;15.52;;;;;;;8.90;100.00;98310.63;4970398;28;20041;-68
2024/03/08 00:17:20;;;;;;;23.70;15.95;;;;;;;8.89;100.00;98315.00;4989161;28;20035;-67
2024/03/08 00:19:46;;;;;;;24.30;16.30;;;;;;;8.88;100.00;98315.13;4991294;28;20104;-68
2024/03/08 00:22:11;;;;;;;20.42;15.93;;;;;;;8.63;100.00;98274.13;4980613;28;20055;-67
2024/03/08 00:24:39;;;;;;;21.15;15.73;;;;;;;8.89;100.00;98311.56;4961663;28;20472;-68
2024/03/08 00:27:05;;;;;;;25.63;17.48;;;;;;;8.93;100.00;98316.34;4993116;28;20109;-68
2024/03/08 00:29:31;;;;;;;27.42;17.55;;;;;;;8.74;100.00;98282.69;4959184;28;20048;-67
2024/03/08 00:31:58;;;;;;;26.67;18.20;;;;;;;8.94;100.00;98315.38;4982504;28;20060;-67
2024/03/08 00:34:24;;;;;;;25.25;16.42;;;;;;;8.87;100.00;98305.72;4998339;28;20096;-67
2024/03/08 00:36:51;;;;;;;22.40;15.80;;;;;;;8.97;100.00;98296.94;4977346;28;20049;-68
2024/03/08 00:39:19;;;;;;;23.27;16.10;;;;;;;8.58;100.00;98263.38;4987924;28;20033;-68
2024/03/08 00:41:45;;;;;;;23.65;16.67;;;;;;;8.85;100.00;98306.69;4978163;28;20049;-68
2024/03/08 00:44:10;;;;;;;23.17;16.08;;;;;;;8.84;100.00;98312.00;4965081;28;20050;-68
2024/03/08 00:46:36;;;;;;;24.13;17.38;;;;;;;8.72;100.00;98300.97;4966495;28;20041;-67
2024/03/08 00:49:01;;;;;;;22.50;15.90;;;;;;;8.81;100.00;98307.09;4974694;28;20989;-69
2024/03/08 00:51:27;;;;;;;24.42;16.80;;;;;;;8.71;100.00;98306.31;4985808;28;20491;-68
2024/03/08 00:53:52;;;;;;;23.13;16.90;;;;;;;8.70;100.00;98305.47;4957095;28;20117;-68
2024/03/08 00:56:24;;;;;;;23.95;16.60;;;;;;;8.57;100.00;98303.19;4966820;28;20523;-68
2024/03/08 00:58:53;;;;;;;24.58;16.70;;;;;;;8.71;100.00;98306.31;4963020;28;20044;-67
2024/03/08 01:01:19;;;;;;;26.13;17.98;;;;;;;8.68;100.00;98302.22;4981559;28;20416;-68
2024/03/08 01:03:48;;;;;;;26.48;18.33;;;;;;;8.70;100.00;98307.25;4980081;28;20030;-67
2024/03/08 01:06:17;;;;;;;23.83;16.77;;;;;;;8.71;100.00;98303.72;4960252;28;20077;-66
2024/03/08 01:08:44;;;;;;;25.95;18.40;;;;;;;8.76;100.00;98312.72;5000109;28;20042;-66
2024/03/08 01:11:11;;;;;;;21.58;16.90;;;;;;;8.77;100.00;98297.97;4977297;28;20065;-67
2024/03/08 01:13:36;;;;;;;26.50;17.98;;;;;;;8.55;100.00;98255.06;4965832;28;20046;-67
2024/03/08 01:16:03;;;;;;;26.60;17.73;;;;;;;8.78;100.00;98284.03;4968976;28;20043;-68
2024/03/08 01:18:29;;;;;;;24.67;17.42;;;;;;;8.83;100.00;98290.47;4980535;28;20890;-66
2024/03/08 01:20:54;;;;;;;25.83;17.80;;;;;;;8.60;100.00;98253.69;4970257;28;20034;-68
2024/03/08 01:23:22;;;;;;;23.40;17.20;;;;;;;8.87;100.00;98296.19;4983895;28;20120;-67
2024/03/08 01:25:56;;;;;;;25.50;17.08;;;;;;;8.78;100.00;98292.66;4971853;28;20044;-67
2024/03/08 01:28:25;;;;;;;26.02;17.65;;;;;;;8.78;100.00;98291.81;4970989;28;20477;-68
2024/03/08 01:30:55;;;;;;;24.67;16.30;;;;;;;8.82;100.00;98288.81;4963094;28;20042;-69
2024/03/08 01:33:26;;;;;;;23.45;16.85;;;;;;;8.78;100.00;98295.25;4980919;28;20040;-68
2024/03/08 01:35:53;;;;;;;23.73;18.23;;;;;;;8.83;100.00;98285.28;4976130;28;20037;-68
2024/03/08 01:38:21;;;;;;;28.38;17.25;;;;;;;8.85;100.00;98274.72;4973762;28;20030;-66
2024/03/08 01:40:48;;;;;;;26.38;16.63;;;;;;;8.94;100.00;98283.44;4992653;28;20153;-67
2024/03/08 01:43:20;;;;;;;24.48;17.08;;;;;;;8.87;100.00;98266.81;4973264;28;20148;-67
2024/03/08 01:45:46;;;;;;;23.95;17.00;;;;;;;8.93;100.00;98284.41;4972001;28;20052;-68
2024/03/08 01:48:12;;;;;;;24.77;17.13;;;;;;;8.59;100.00;98228.69;4996041;28;20752;-68
2024/03/08 01:50:39;;;;;;;23.90;18.30;;;;;;;8.85;100.00;98277.31;4973690;28;20064;-68
2024/03/08 01:53:05;;;;;;;25.15;18.15;;;;;;;8.56;100.00;98239.38;4984728;28;20696;-68
2024/03/08 01:55:31;;;;;;;25.05;18.65;;;;;;;8.43;100.00;98228.47;4974666;28;20057;-67
2024/03/08 01:57:58;;;;;;;24.48;18.17;;;;;;;8.74;100.00;98270.53;4964345;28;20081;-68
2024/03/08 02:00:24;;;;;;;24.52;17.58;;;;;;;8.72;100.00;98269.06;4965257;28;20037;-67
2024/03/08 02:02:51;;;;;;;28.52;18.63;;;;;;;8.65;100.00;98263.59;4980813;28;20044;-67
2024/03/08 02:05:17;;;;;;;26.55;18.13;;;;;;;8.38;100.00;98218.53;4997037;28;20057;-67
2024/03/08 02:07:46;;;;;;;26.65;18.15;;;;;;;8.69;100.00;98264.13;4981105;28;20026;-67
2024/03/08 02:10:12;;;;;;;24.90;18.42;;;;;;;8.67;100.00;98253.94;4970258;28;20034;-68
2024/03/08 02:12:38;;;;;;;26.92;17.55;;;;;;;8.68;100.00;98257.34;4974035;28;20124;-67
2024/03/08 02:15:06;;;;;;;26.75;17.90;;;;;;;8.71;100.00;98252.69;4983403;28;20034;-68
2024/03/08 02:17:33;;;;;;;26.75;17.73;;;;;;;8.77;100.00;98249.53;4972622;28;20042;-67
2024/03/08 02:20:01;;;;;;;27.65;17.65;;;;;;;8.80;100.00;98245.84;4962581;28;20698;-67
2024/03/08 02:22:27;;;;;;;25.42;18.33;;;;;;;8.46;100.00;98215.25;4958280;28;20033;-67
2024/03/08 02:24:53;;;;;;;27.17;17.52;;;;;;;8.30;100.00;98205.44;4966562;28;20388;-67
2024/03/08 02:27:24;;;;;;;26.00;18.15;;;;;;;8.53;100.00;98242.25;4974168;28;20035;-68
2024/03/08 02:29:49;;;;;;;25.02;18.30;;;;;;;8.55;100.00;98236.91;4959286;28;20156;-68
2024/03/08 02:32:15;;;;;;;26.92;18.40;;;;;;;8.38;100.00;98202.97;4974455;28;20050;-68
2024/03/08 02:34:41;;;;;;;25.33;17.85;;;;;;;8.61;100.00;98236.34;4973690;28;20072;-68
2024/03/08 02:37:06;;;;;;;24.70;17.55;;;;;;;8.49;100.00;98233.13;4977385;28;20037;-67
2024/03/08 02:39:34;;;;;;;22.52;16.02;;;;;;;8.30;100.00;98187.31;4978109;28;20057;-69
2024/03/08 02:41:59;;;;;;;21.00;15.63;;;;;;;8.61;100.00;98234.56;4981615;28;20125;-67
2024/03/08 02:44:27;;;;;;;22.33;15.40;;;;;;;8.56;100.00;98241.97;4989297;28;20040;-67
2024/03/08 02:46:54;;;;;;;23.65;15.52;;;;;;;8.67;100.00;98243.56;4976575;28;20103;-67
2024/03/08 02:49:20;;;;;;;22.38;15.30;;;;;;;8.71;100.00;98242.31;4965516;28;20045;-67
2024/03/08 02:51:46;;;;;;;22.55;15.38;;;;;;;8.72;100.00;98243.94;4979384;28;20412;-67
2024/03/08 02:54:13;;;;;;;22.92;14.73;;;;;;;8.71;100.00;98249.28;4975905;28;20107;-67
2024/03/08 02:56:44;;;;;;;21.60;16.20;;;;;;;8.44;100.00;98193.84;4960652;28;20038;-67
2024/03/08 02:59:09;;;;;;;22.42;16.25;;;;;;;8.72;100.00;98245.72;4975255;28;20050;-67
2024/03/08 03:01:38;;;;;;;24.92;16.38;;;;;;;8.46;100.00;98202.28;4978851;28;20162;-68
2024/03/08 03:04:06;;;;;;;21.23;15.20;;;;;;;8.75;100.00;98241.06;4970805;28;20041;-69
2024/03/08 03:06:33;;;;;;;23.38;15.88;;;;;;;8.79;100.00;98241.59;4976773;28;20346;-69
2024/03/08 03:09:01;;;;;;;22.17;15.45;;;;;;;8.69;100.00;98233.88;4972485;28;20049;-68
2024/03/08 03:11:29;;;;;;;23.75;15.82;;;;;;;8.75;100.00;98235.88;4986376;28;20040;-68
2024/03/08 03:13:55;;;;;;;24.48;15.02;;;;;;;8.80;100.00;98245.84;4992515;28;20404;-67
2024/03/08 03:16:21;;;;;;;23.30;16.45;;;;;;;8.45;100.00;98209.25;4988933;28;20038;-67
2024/03/08 03:18:47;;;;;;;24.48;16.00;;;;;;;8.69;100.00;98246.00;4968569;28;20049;-67
2024/03/08 03:21:17;;;;;;;22.92;15.10;;;;;;;8.61;100.00;98250.13;4954355;28;20065;-68
2024/03/08 03:23:42;;;;;;;20.17;14.40;;;;;;;8.55;100.00;98244.69;4979575;28;20042;-66
2024/03/08 03:26:08;;;;;;;19.60;14.35;;;;;;;8.27;100.00;98203.97;4977029;28;20113;-67
2024/03/08 03:28:39;;;;;;;22.05;15.95;;;;;;;8.53;100.00;98244.84;4972103;28;20054;-66
2024/03/08 03:31:07;;;;;;;21.85;15.52;;;;;;;8.61;100.00;98239.75;4973237;28;20037;-67
2024/03/08 03:33:36;;;;;;;22.92;14.82;;;;;;;8.52;100.00;98216.47;4966039;28;20661;-68
2024/03/08 03:36:05;;;;;;;24.30;16.17;;;;;;;8.74;100.00;98242.03;4987579;28;20045;-66
2024/03/08 03:38:30;;;;;;;22.80;15.00;;;;;;;8.77;100.00;98244.34;4974443;28;20123;-67
2024/03/08 03:41:06;;;;;;;23.42;16.00;;;;;;;8.80;100.00;98251.03;4990364;28;20655;-68
2024/03/08 03:43:34;;;;;;;22.42;15.52;;;;;;;8.77;100.00;98240.94;4977521;28;20832;-67
2024/03/08 03:46:00;;;;;;;21.33;14.80;;;;;;;8.72;100.00;98240.53;4973237;28;20081;-68
2024/03/08 03:48:25;;;;;;;21.33;15.38;;;;;;;8.71;100.00;98244.09;4976451;28;20790;-67
2024/03/08 03:50:53;;;;;;;22.40;15.85;;;;;;;8.68;100.00;98245.19;4966098;28;20523;-66
2024/03/08 03:53:21;;;;;;;24.10;15.27;;;;;;;8.73;100.00;98242.19;4987352;28;20130;-67
2024/03/08 03:55:46;;;;;;;24.08;15.38;;;;;;;8.58;100.00;98242.63;4984269;28;20472;-67
2024/03/08 03:58:14;;;;;;;23.83;15.00;;;;;;;8.64;100.00;98241.25;4980874;28;20044;-66
2024/03/08 04:00:40;;;;;;;24.10;15.45;;;;;;;8.67;100.00;98246.16;4963215;28;20045;-67
2024/03/08 04:03:06;;;;;;;21.80;15.10;;;;;;;8.50;100.00;98229.56;4988756;28;20112;-68
2024/03/08 04:05:31;;;;;;;26.60;16.35;;;;;;;8.40;100.00;98203.66;4977894;28;20042;-68
2024/03/08 04:07:57;;;;;;;21.98;14.30;;;;;;;8.68;100.00;98241.78;4984157;28;20770;-68
2024/03/08 04:10:22;;;;;;;21.55;14.93;;;;;;;8.70;100.00;98235.50;4978283;28;20065;-68
2024/03/08 04:12:50;;;;;;;22.65;14.90;;;;;;;8.71;100.00;98246.69;4960298;28;20034;-68
2024/03/08 04:15:15;;;;;;;23.10;14.90;;;;;;;8.60;100.00;98239.91;4976076;28;20044;-68
2024/03/08 04:17:45;;;;;;;24.65;14.50;;;;;;;8.64;100.00;98239.47;4993937;28;20038;-68
2024/03/08 04:20:14;;;;;;;23.30;14.80;;;;;;;8.65;100.00;98241.13;4967824;28;20026;-68
2024/03/08 04:22:44;;;;;;;20.85;14.35;;;;;;;8.57;100.00;98229.81;4979343;28;20050;-68
2024/03/08 04:25:09;;;;;;;23.00;15.25;;;;;;;8.47;100.00;98214.31;4984047;28;20060;-68
2024/03/08 04:27:35;;;;;;;25.25;15.23;;;;;;;8.55;100.00;98229.16;4964807;28;20495;-68
2024/03/08 04:30:03;;;;;;;24.45;15.80;;;;;;;8.62;100.00;98232.81;4963042;28;20563;-68
2024/03/08 04:32:29;;;;;;;25.77;15.93;;;;;;;8.49;100.00;98219.31;4960323;28;20104;-67
2024/03/08 04:34:55;;;;;;;23.88;15.70;;;;;;;8.45;100.00;98235.19;4989685;28;20355;-67
2024/03/08 04:37:23;;;;;;;22.67;14.52;;;;;;;8.38;100.00;98204.75;4976873;28;20061;-67
2024/03/08 04:39:49;;;;;;;23.80;15.25;;;;;;;8.56;100.00;98230.75;4983593;28;20153;-70
2024/03/08 04:42:15;;;;;;;23.88;15.15;;;;;;;8.50;100.00;98232.16;4978507;28;20501;-68
2024/03/08 04:44:40;;;;;;;21.88;14.32;;;;;;;8.61;100.00;98238.94;4960680;28;20049;-68
2024/03/08 04:47:06;;;;;;;23.55;15.43;;;;;;;8.58;100.00;98236.63;4978049;28;20038;-69
2024/03/08 04:49:37;;;;;;;24.13;15.25;;;;;;;8.52;100.00;98239.78;4988911;28;20728;-69
2024/03/08 04:52:05;;;;;;;21.77;14.20;;;;;;;8.43;100.00;98231.91;4963405;28;20432;-66
2024/03/08 04:54:31;;;;;;;23.35;15.18;;;;;;;8.23;100.00;98200.03;4967936;28;20037;-67
2024/03/08 04:57:01;;;;;;;24.10;15.02;;;;;;;8.43;100.00;98237.09;4963425;28;20092;-68
2024/03/08 04:59:29;;;;;;;23.38;15.88;;;;;;;8.36;100.00;98232.56;4974753;28;20670;-67
2024/03/08 05:01:56;;;;;;;24.60;14.88;;;;;;;8.42;100.00;98237.22;4980999;28;20045;-68
2024/03/08 05:04:22;;;;;;;25.75;16.17;;;;;;;8.36;100.00;98232.56;4978153;28;20116;-68
2024/03/08 05:06:48;;;;;;;27.17;16.58;;;;;;;8.14;100.00;98203.44;4966023;28;20049;-66
2024/03/08 05:09:13;;;;;;;23.98;15.88;;;;;;;8.34;100.00;98229.28;4972850;28;20038;-68
2024/03/08 05:11:43;;;;;;;25.35;16.23;;;;;;;8.45;100.00;98231.75;4964723;28;20038;-67
2024/03/08 05:14:09;;;;;;;24.27;15.27;;;;;;;8.18;100.00;98191.84;4970791;28;20587;-68
2024/03/08 05:16:35;;;;;;;23.75;15.00;;;;;;;8.44;100.00;98230.94;4978201;28;20090;-66
2024/03/08 05:19:01;;;;;;;23.55;15.73;;;;;;;8.40;100.00;98239.13;4958982;28;20072;-67
2024/03/08 05:21:31;;;;;;;24.13;15.50;;;;;;;8.47;100.00;98229.84;4982105;28;21093;-68
2024/03/08 05:23:57;;;;;;;24.15;15.70;;;;;;;8.45;100.00;98229.16;4963811;28;20068;-67
2024/03/08 05:26:24;;;;;;;23.15;16.40;;;;;;;8.50;100.00;98223.56;4972182;28;20568;-67
2024/03/08 05:28:52;;;;;;;25.35;16.15;;;;;;;8.48;100.00;98226.28;4967541;28;20042;-67
2024/03/08 05:31:22;;;;;;;26.02;17.13;;;;;;;8.46;100.00;98235.97;4959547;28;20153;-66
2024/03/08 05:33:48;;;;;;;24.27;15.50;;;;;;;8.54;100.00;98238.69;4962633;28;20031;-67
2024/03/08 05:36:15;;;;;;;25.48;16.27;;;;;;;8.32;100.00;98202.72;4959555;28;20037;-67
2024/03/08 05:38:42;;;;;;;27.73;15.95;;;;;;;8.52;100.00;98240.59;4965834;28;20046;-67
2024/03/08 05:41:07;;;;;;;24.70;15.00;;;;;;;8.51;100.00;98241.56;4976844;28;20054;-68
2024/03/08 05:43:33;;;;;;;24.83;16.15;;;;;;;8.51;100.00;98243.34;4979400;28;20141;-66
2024/03/08 05:46:00;;;;;;;23.73;15.35;;;;;;;8.39;100.00;98237.47;4981476;28;20045;-67
2024/03/08 05:48:28;;;;;;;24.70;15.77;;;;;;;8.14;100.00;98193.09;4967141;28;20601;-67
2024/03/08 05:50:59;;;;;;;23.80;15.20;;;;;;;8.38;100.00;98243.63;4993564;28;20042;-66
2024/03/08 05:53:24;;;;;;;23.70;14.73;;;;;;;8.30;100.00;98248.66;4970642;28;20409;-67
2024/03/08 05:55:49;;;;;;;23.85;15.60;;;;;;;8.37;100.00;98250.56;4992988;28;20052;-66
2024/03/08 05:58:15;;;;;;;23.02;14.23;;;;;;;8.39;100.00;98256.41;4973367;28;20038;-68
2024/03/08 06:00:41;;;;;;;25.48;15.77;;;;;;;8.38;100.00;98249.63;4984690;28;20639;-68
2024/03/08 06:03:06;;;;;;;25.27;15.70;;;;;;;8.28;100.00;98251.38;4978765;28;20030;-68
2024/03/08 06:05:31;;;;;;;21.85;14.60;;;;;;;8.25;100.00;98254.25;4972210;28;21030;-68
2024/03/08 06:08:00;;;;;;;26.40;15.93;;;;;;;8.21;100.00;98243.38;4962428;28;20045;-68
2024/03/08 06:10:25;;;;;;;24.95;16.17;;;;;;;8.23;100.00;98259.59;4972253;28;20070;-67
2024/03/08 06:12:51;;;;;;;24.73;14.93;;;;;;;8.15;100.00;98254.28;4957789;28;20141;-66
2024/03/08 06:15:17;;;;;;;24.30;14.93;;;;;;;8.18;100.00;98241.06;4959346;28;20759;-67
2024/03/08 06:17:42;;;;;;;23.52;15.40;;;;;;;8.23;100.00;98262.19;4979405;28;20070;-67
2024/03/08 06:20:12;;;;;;;25.25;15.15;;;;;;;7.93;100.00;98207.97;4977717;28;20038;-67
2024/03/08 06:22:42;;;;;;;25.85;15.63;;;;;;;8.24;100.00;98260.41;4962300;28;20108;-66
2024/03/08 06:25:13;;;;;;;26.20;15.45;;;;;;;8.25;100.00;98256.84;4989732;28;20161;-68
2024/03/08 06:27:40;;;;;;;26.50;15.88;;;;;;;8.24;100.00;98263.00;4984833;28;20053;-67
2024/03/08 06:30:06;;;;;;;25.42;15.25;;;;;;;8.26;100.00;98256.69;4975912;28;20102;-68
2024/03/08 06:32:35;;;;;;;26.88;16.17;;;;;;;8.18;100.00;98259.19;4957311;28;20756;-67
2024/03/08 06:35:07;;;;;;;26.45;15.32;;;;;;;8.22;100.00;98264.91;4974117;28;20140;-67
2024/03/08 06:37:33;;;;;;;26.58;15.57;;;;;;;8.21;100.00;98266.69;4969335;28;20117;-66
2024/03/08 06:39:58;;;;;;;25.95;15.50;;;;;;;8.22;100.00;98273.47;4949569;28;20104;-67
2024/03/08 06:42:24;;;;;;;26.08;15.13;;;;;;;8.28;100.00;98280.69;4972702;28;20058;-68
2024/03/08 06:44:49;;;;;;;27.40;15.88;;;;;;;8.34;100.00;98284.53;4958774;28;20049;-67
2024/03/08 06:47:20;;;;;;;24.75;15.55;;;;;;;8.26;100.00;98277.44;4980886;28;20038;-69
2024/03/08 06:49:45;;;;;;;24.25;15.63;;;;;;;8.28;100.00;98272.13;4955116;28;20072;-69
2024/03/08 06:52:11;;;;;;;23.75;15.18;;;;;;;8.32;100.00;98264.88;4991013;28;20530;-68
2024/03/08 06:54:37;;;;;;;27.17;15.10;;;;;;;8.34;100.00;98271.56;4957548;28;20064;-66
2024/03/08 06:57:10;;;;;;;24.75;15.13;;;;;;;8.39;100.00;98271.16;4974874;28;20428;-67
2024/03/08 06:59:36;;;;;;;25.83;15.75;;;;;;;8.18;100.00;98233.28;4973949;28;20404;-68
2024/03/08 07:02:02;;;;;;;24.80;16.20;;;;;;;8.41;100.00;98272.63;4967949;28;20045;-68
2024/03/08 07:04:29;;;;;;;28.70;15.88;;;;;;;8.39;100.00;98263.38;4981902;28;20045;-68
2024/03/08 07:06:58;;;;;;;27.90;16.77;;;;;;;8.43;100.00;98264.75;4954513;28;20038;-67
2024/03/08 07:09:27;;;;;;;28.55;16.40;;;;;;;8.42;100.00;98266.53;4963487;28;20038;-67
2024/03/08 07:11:54;;;;;;;23.75;15.48;;;;;;;8.08;100.00;98216.94;4951887;28;20045;-65
2024/03/08 07:14:27;;;;;;;27.05;15.85;;;;;;;8.20;100.00;98231.38;4971151;28;20046;-67
2024/03/08 07:16:53;;;;;;;27.70;15.95;;;;;;;8.45;100.00;98265.44;4975033;28;20045;-68
2024/03/08 07:19:19;;;;;;;26.25;15.95;;;;;;;8.56;100.00;98275.66;4957921;28;20034;-67
2024/03/08 07:21:44;;;;;;;29.73;16.48;;;;;;;8.61;100.00;98268.25;4962199;28;20091;-67
2024/03/08 07:24:40;;;;;;;25.75;14.88;;;;;;;8.69;100.00;98261.56;4964986;28;20069;-67
2024/03/08 07:27:06;;;;;;;24.42;15.23;;;;;;;8.73;100.00;98278.47;4959272;28;20034;-66
2024/03/08 07:29:32;;;;;;;22.88;15.07;;;;;;;8.79;100.00;98276.13;4964924;28;20093;-67
2024/03/08 07:34:23;;;;;;;24.92;15.43;;;;;;;8.87;100.00;98280.63;4974916;28;20045;-66
2024/03/08 07:36:50;;;;;;;25.10;16.10;;;;;;;8.88;100.00;98276.25;4958982;28;20085;-68
2024/03/08 07:39:16;;;;;;;24.75;14.90;;;;;;;8.94;100.00;98284.25;4949036;28;20034;-68
2024/03/08 07:41:44;;;;;;;26.00;15.35;;;;;;;8.93;100.00;98289.59;4952626;28;20078;-68
2024/03/08 07:44:10;;;;;;;24.65;15.63;;;;;;;9.00;100.00;98288.88;4939217;28;20054;-67
2024/03/08 07:46:36;;;;;;;25.60;15.25;;;;;;;8.93;100.00;98285.22;4979684;28;20062;-66
2024/03/08 07:49:05;;;;;;;25.20;15.40;;;;;;;8.57;100.00;98241.00;4945242;28;20069;-68
2024/03/08 07:51:30;;;;;;;27.75;16.60;;;;;;;8.81;100.00;98288.94;4947275;28;20537;-68
2024/03/08 07:53:57;;;;;;;26.27;15.45;;;;;;;8.80;100.00;98282.94;4952767;28;20041;-67
2024/03/08 07:56:22;;;;;;;23.15;14.70;;;;;;;8.86;100.00;98281.56;4955637;28;20461;-65
2024/03/08 07:58:50;;;;;;;23.52;14.60;;;;;;;8.80;100.00;98284.72;4967853;28;20523;-66
2024/03/08 08:01:19;;;;;;;23.73;15.00;;;;;;;8.80;100.00;98288.13;4971283;28;20667;-66
2024/03/08 08:03:45;;;;;;;24.70;14.75;;;;;;;8.71;100.00;98267.44;4956805;28;21446;-67
2024/03/08 08:06:15;;;;;;;23.00;13.68;;;;;;;8.97;100.00;98290.94;4935666;28;20092;-66
2024/03/08 08:08:42;;;;;;;20.35;13.50;;;;;;;8.90;100.00;98285.50;4940341;28;20105;-67
2024/03/08 08:11:11;;;;;;;21.60;13.07;;;;;;;8.80;100.00;98270.00;4968408;28;20061;-67
2024/03/08 08:13:39;;;;;;;22.37;14.13;;;;;;;8.83;100.00;98292.22;4955057;28;20036;-66
2024/03/08 08:16:07;;;;;;;23.67;13.30;;;;;;;8.80;100.00;98290.72;4952657;28;20038;-65
2024/03/08 08:18:34;;;;;;;21.70;14.13;;;;;;;8.97;100.00;98294.34;4960392;28;20043;-69
2024/03/08 08:21:00;;;;;;;20.10;12.93;;;;;;;8.90;100.00;98285.50;4943978;28;20037;-67
2024/03/08 08:23:26;;;;;;;21.52;12.82;;;;;;;8.91;100.00;98284.56;4955277;28;20878;-66
2024/03/08 08:25:51;;;;;;;22.58;12.80;;;;;;;8.96;100.00;98284.13;4940584;28;20049;-66
2024/03/08 08:28:18;;;;;;;18.70;12.75;;;;;;;8.85;100.00;98277.31;4932140;28;20664;-68
2024/03/08 08:30:44;;;;;;;19.52;12.82;;;;;;;8.87;100.00;98288.41;4955556;28;20035;-68
2024/03/08 08:33:10;;;;;;;21.27;12.55;;;;;;;9.02;100.00;98284.38;4948369;28;20048;-68
2024/03/08 08:35:37;;;;;;;22.80;13.02;;;;;;;9.12;100.00;98281.72;4944662;28;20046;-65
2024/03/08 08:38:03;;;;;;;21.65;12.68;;;;;;;9.06;100.00;98282.31;4950623;28;20049;-67
2024/03/08 08:40:32;;;;;;;21.05;12.07;;;;;;;9.17;100.00;98273.53;4957901;28;20145;-68
2024/03/08 08:43:00;;;;;;;21.73;12.95;;;;;;;9.16;100.00;98285.69;4958298;28;20049;-67
2024/03/08 08:45:28;;;;;;;20.00;12.10;;;;;;;9.17;100.00;98292.50;4960713;28;20046;-67
2024/03/08 08:47:54;;;;;;;22.92;12.55;;;;;;;9.12;100.00;98286.91;4987094;28;20038;-67
2024/03/08 08:50:22;;;;;;;21.30;12.90;;;;;;;9.07;100.00;98289.13;4989264;28;20045;-66
2024/03/08 08:52:48;;;;;;;19.77;13.20;;;;;;;9.21;100.00;98286.06;4958631;28;20040;-68
2024/03/08 08:55:20;;;;;;;19.63;12.98;;;;;;;9.15;100.00;98286.63;4980446;28;20033;-67
2024/03/08 08:57:48;;;;;;;20.52;13.07;;;;;;;9.21;100.00;98287.84;4993387;28;20494;-66
2024/03/08 09:00:18;;;;;;;24.52;13.40;;;;;;;9.08;100.00;98248.44;4980526;28;20041;-68
2024/03/08 09:02:44;;;;;;;;;;;;;;;9.37;100.00;98289.81;4993252;28;20030;-67
2024/03/08 09:05:12;;;;;;;16.67;11.82;;;;;;;9.39;100.00;98277.50;4985828;28;19936;-66
2024/03/08 09:07:39;;;;;;;20.23;12.27;;;;;;;9.45;100.00;98289.09;4963765;28;20081;-66
2024/03/08 09:10:05;;;;;;;18.52;12.38;;;;;;;9.47;100.00;98275.00;4983517;28;20042;-67
2024/03/08 09:12:32;;;;;;;20.70;13.90;;;;;;;9.56;100.00;98275.91;4967635;28;20092;-67
2024/03/08 09:14:58;;;;;;;22.20;13.02;;;;;;;9.62;100.00;98278.72;4972374;28;20050;-67
2024/03/08 09:17:24;;;;;;;20.92;13.40;;;;;;;9.59;100.00;98276.41;4975587;28;20038;-66
2024/03/08 09:19:49;;;;;;;23.20;13.05;;;;;;;9.30;100.00;98227.28;4992111;28;20097;-67
2024/03/08 09:22:18;;;;;;;20.10;12.85;;;;;;;9.56;100.00;98281.09;4964287;28;20091;-67
2024/03/08 09:24:44;;;;;;;20.08;12.98;;;;;;;9.57;100.00;98274.94;4958028;28;20256;-67
2024/03/08 09:27:09;;;;;;;18.42;12.27;;;;;;;9.62;100.00;98283.13;4984140;28;20049;-66
2024/03/08 09:29:35;;;;;;;18.27;12.23;;;;;;;9.72;99.45;98283.84;4982941;28;20476;-67
2024/03/08 09:32:05;;;;;;;16.92;11.45;;;;;;;9.72;97.00;98276.06;4961858;28;20045;-66
2024/03/08 09:34:33;;;;;;;20.60;12.65;;;;;;;9.73;97.80;98272.50;4977218;28;20436;-67
2024/03/08 09:37:04;;;;;;;19.58;11.27;;;;;;;9.65;96.05;98241.28;4976067;28;20143;-66
2024/03/08 09:39:33;;;;;;;16.20;10.52;;;;;;;9.83;95.21;98277.63;4963973;28;20037;-66
2024/03/08 09:42:03;;;;;;;17.17;11.70;;;;;;;9.79;94.97;98276.31;4972807;28;20088;-67
2024/03/08 09:44:31;;;;;;;19.60;11.23;;;;;;;9.74;94.47;98263.75;4965489;28;20038;-68
2024/03/08 09:46:58;;;;;;;17.40;11.20;;;;;;;9.50;94.80;98232.38;4967065;28;20109;-67
2024/03/08 09:49:29;;;;;;;17.88;12.02;;;;;;;9.76;94.78;98274.78;4973484;28;20042;-67
2024/03/08 09:51:55;;;;;;;19.33;12.10;;;;;;;9.69;94.26;98280.72;4977126;28;20702;-66
2024/03/08 09:54:24;;;;;;;18.23;11.57;;;;;;;9.74;94.64;98291.50;4970032;28;20224;-66
2024/03/08 09:56:51;;;;;;;18.65;12.00;;;;;;;9.71;95.50;98287.44;4978504;28;20140;-68
2024/03/08 10:01:48;;;;;;;17.70;11.35;;;;;;;9.72;96.05;98283.03;4976160;28;20030;-66
2024/03/08 10:04:13;;;;;;;16.58;11.38;;;;;;;9.33;95.36;98219.22;4996169;28;20046;-67
2024/03/08 10:06:43;;;;;;;18.17;12.23;;;;;;;9.78;93.19;98279.84;5000710;28;20508;-67
2024/03/08 10:09:12;;;;;;;17.92;11.93;;;;;;;9.79;94.80;98281.50;4983344;28;20053;-66
2024/03/08 10:11:42;;;;;;;15.85;11.27;;;;;;;9.92;93.05;98287.13;4977418;28;20049;-68
2024/03/08 10:14:11;;;;;;;18.92;11.95;;;;;;;9.93;93.09;98291.38;4957854;28;20042;-65
2024/03/08 10:16:39;;;;;;;18.35;11.90;;;;;;;9.94;91.10;98290.38;4946211;28;20094;-66
2024/03/08 10:19:05;;;;;;;16.55;11.23;;;;;;;9.96;90.47;98290.25;4964776;28;20721;-66
2024/03/08 10:21:36;;;;;;;16.88;12.00;;;;;;;10.16;89.21;98286.50;4958277;28;20172;-66
2024/03/08 10:24:10;;;;;;;15.45;10.55;;;;;;;10.24;90.88;98284.94;4970765;28;20539;-65
2024/03/08 10:26:39;;;;;;;17.77;11.45;;;;;;;10.18;91.11;98275.97;4978171;28;20038;-66
2024/03/08 10:29:04;;;;;;;17.87;12.13;;;;;;;10.03;89.59;98259.31;4955854;28;20061;-67
2024/03/08 10:31:33;;;;;;;17.65;11.60;;;;;;;9.86;89.30;98240.19;4970271;28;20448;-67
2024/03/08 10:33:58;;;;;;;16.85;11.48;;;;;;;10.25;88.43;98271.81;4975808;28;20046;-66
2024/03/08 10:36:24;;;;;;;16.45;11.02;;;;;;;10.24;88.87;98278.00;4967358;28;20104;-67
2024/03/08 10:38:53;;;;;;;18.13;11.55;;;;;;;10.30;89.18;98279.16;4977032;28;20034;-67
2024/03/08 10:41:19;;;;;;;16.17;11.02;;;;;;;10.01;89.85;98238.69;4956683;28;20048;-68
2024/03/08 10:44:20;;;;;;;17.65;10.98;;;;;;;10.29;89.09;98293.94;4960461;28;20042;-66
2024/03/08 10:46:48;;;;;;;16.00;10.60;;;;;;;10.23;88.69;98291.13;4986026;28;20033;-68
2024/03/08 10:49:19;;;;;;;18.52;11.85;;;;;;;10.21;88.43;98288.69;4992702;28;20103;-67
2024/03/08 10:51:45;;;;;;;17.30;10.75;;;;;;;10.17;88.74;98282.16;4962500;28;20036;-68
2024/03/08 10:54:11;;;;;;;16.98;11.77;;;;;;;10.17;88.96;98276.97;4959713;28;20862;-67
2024/03/08 10:56:37;;;;;;;18.10;11.40;;;;;;;10.16;88.50;98283.91;4974658;28;20049;-65
2024/03/08 10:59:05;;;;;;;18.95;11.00;;;;;;;10.25;87.40;98271.00;4957051;28;20570;-66
2024/03/08 11:01:31;;;;;;;17.15;10.85;;;;;;;10.42;85.32;98279.75;4967697;28;20716;-67
2024/03/08 11:03:56;;;;;;;16.58;10.18;;;;;;;10.44;85.46;98270.88;4961358;28;20025;-67
2024/03/08 11:06:37;;;;;;;16.52;10.88;;;;;;;10.58;83.45;98280.69;4982822;28;20038;-68
2024/03/08 11:09:13;;;;;;;17.08;11.27;;;;;;;10.72;84.35;98266.31;4972125;28;20057;-66
2024/03/08 11:11:42;;;;;;;17.45;10.77;;;;;;;10.78;84.00;98262.28;4969760;28;20073;-66
2024/03/08 11:14:43;;;;;;;17.95;10.63;;;;;;;10.80;84.12;98268.13;4970096;28;20030;-66
2024/03/08 11:17:10;;;;;;;16.02;10.80;;;;;;;10.53;83.20;98224.91;4977253;28;20030;-65
2024/03/08 11:19:40;;;;;;;14.63;9.70;;;;;;;10.88;81.04;98263.00;4958921;28;20512;-65
2024/03/08 11:22:23;;;;;;;15.05;10.10;;;;;;;10.58;82.60;98230.47;4989895;28;20037;-66
2024/03/08 11:24:53;;;;;;;17.20;10.32;;;;;;;10.87;81.46;98257.94;4954521;28;20798;-64